Airfield :
LOGIN :

Register | Disclaimer

   EN    FR    IT 

 










Legend :    VFR   Marginal VFR   IFR   Intensive IFR   Very Intensive IFR
Visi :
Ceiling :
>= 8 km
>= 3000ft
5 to 8 km
1000 to 3000 ft
1500m to 5 km
500 to 1000 ft
800 to 1500m
200 to 500 ft
< 800m
< 200 ft
Symbols :   Thunderstorms  Fog  Heavy snow  Heavy precipitations  Wind > 20 kt
SIGMETs :     Misc.  Thunderstorms  Icing  Turbulence  Mountain Waves  Volcanic Ashes







- Airport Elevation : 14 ft
- IATA code : BRE


EDDW - Bremen Neuenland

CURRENT METAR :
  • 242150Z 30007KT 9999 FEW009 BKN015 13/12 Q1020

EXPIRED METARs :
  • 242120Z 30009KT 9999 FEW007 BKN014 BKN019 13/12 Q1020
  • 242050Z 29009KT 9999 SCT014 BKN018 13/11 Q1020 TEMPO BKN012
  • 242020Z 30010KT 9999 BKN020 14/11 Q1021 NOSIG
  • 241950Z 30009KT 9999 SCT016 BKN020 BKN140 14/11 Q1020 TEMPO BKN012
  • 241920Z 31012KT 9999 SCT016 BKN021 14/11 Q1020 TEMPO BKN012

TAF COR TAF EDDW
Valid from the 24 at 18:00 until the 25 at 18:00 UTC


241749Z 2418/2518 30009KT 9999 BKN025
TEMPO 2418/2505 BKN013
PROB30
TEMPO 2502/2505 BKN007
TEMPO 2505/2512 4000 -DZRA BKN007
No reported NOTAMs for that airfield.



MET'MAP, your aeronautical weather chart ! - Copyright ORBIFLY December 2007 - Disclaimer

ORBIFLY MET'MAP TEAM :

Programming & Development : Alexandra Zaïnal
Concept & Development : Baudouin d'Aumeries
Co-Development & Prog : Marc-Olivier Méhu
Technical & hardware support : Manuel Goepfert

Contact : metmap@orbifly.com




SOURCES & CREDITS :

   NOAA